Fort Wingate Army Depot, New Mexico
Current Conditions -  °F | °C
As of 8:53 AM on Monday 26 Jan 2015 (Local Time) from KGUP Reporting Station
Clear Clear  
Wind Chill: 32°   Ceiling: Unl
Heat Index: 32°   Visibility: 10mi
Dew Point: 25°   Wind: 0mph
Humidity: 75%   Direction: NA
Pressure: 30.39"   Gusts: NA
Location:  35.4315°N, 108.724°W
Report Text: KGUP 261553Z AUTO 00000KT 10SM CLR 00/M04 A3039 RMK AO2 SLP307 T00001039
Loading
Personal Weather Stations






























Interactive Weather Map New forecast layout! Learn more

10-Day Weather Forecast

Advertisements
Track Severe Weather on mobile